sensor_id;sensor_type;location;lat;lon;timestamp;pressure;altitude;pressure_sealevel;temperature;humidity
50933;BME280;36921;49.006;9.292;2023-08-31T00:02:16;98308.06;;;13.90;100.00
50933;BME280;36921;49.006;9.292;2023-08-31T00:04:42;98311.75;;;13.84;100.00
50933;BME280;36921;49.006;9.292;2023-08-31T00:07:07;98318.94;;;13.78;100.00
50933;BME280;36921;49.006;9.292;2023-08-31T00:09:32;98307.38;;;13.71;100.00
50933;BME280;36921;49.006;9.292;2023-08-31T00:12:01;98312.91;;;13.52;100.00
50933;BME280;36921;49.006;9.292;2023-08-31T00:14:28;98307.56;;;13.46;100.00
50933;BME280;36921;49.006;9.292;2023-08-31T00:16:53;98307.19;;;13.30;100.00
50933;BME280;36921;49.006;9.292;2023-08-31T00:19:19;98302.75;;;13.18;100.00
50933;BME280;36921;49.006;9.292;2023-08-31T00:21:45;98297.91;;;13.08;100.00
50933;BME280;36921;49.006;9.292;2023-08-31T00:24:10;98302.38;;;13.02;100.00
50933;BME280;36921;49.006;9.292;2023-08-31T00:26:37;98308.72;;;12.96;100.00
50933;BME280;36921;49.006;9.292;2023-08-31T00:29:09;98299.47;;;12.85;100.00
50933;BME280;36921;49.006;9.292;2023-08-31T00:31:34;98300.03;;;12.76;100.00
50933;BME280;36921;49.006;9.292;2023-08-31T00:33:59;98312.41;;;12.71;100.00
50933;BME280;36921;49.006;9.292;2023-08-31T00:36:30;98312.34;;;12.60;100.00
50933;BME280;36921;49.006;9.292;2023-08-31T00:38:55;98309.25;;;12.56;100.00
50933;BME280;36921;49.006;9.292;2023-08-31T00:41:22;98312.19;;;12.55;100.00
50933;BME280;36921;49.006;9.292;2023-08-31T00:43:47;98317.09;;;12.46;100.00
50933;BME280;36921;49.006;9.292;2023-08-31T00:46:13;98328.41;;;12.43;100.00
50933;BME280;36921;49.006;9.292;2023-08-31T00:48:40;98331.44;;;12.35;100.00
50933;BME280;36921;49.006;9.292;2023-08-31T00:51:06;98332.31;;;12.47;100.00
50933;BME280;36921;49.006;9.292;2023-08-31T00:53:32;98338.50;;;12.36;100.00
50933;BME280;36921;49.006;9.292;2023-08-31T00:55:58;98342.19;;;12.41;100.00
50933;BME280;36921;49.006;9.292;2023-08-31T00:58:23;98348.25;;;12.43;100.00
50933;BME280;36921;49.006;9.292;2023-08-31T01:01:11;98346.59;;;12.42;100.00
50933;BME280;36921;49.006;9.292;2023-08-31T01:03:52;98343.31;;;12.52;100.00
50933;BME280;36921;49.006;9.292;2023-08-31T01:09:07;98342.28;;;12.53;100.00
50933;BME280;36921;49.006;9.292;2023-08-31T01:14:18;98340.22;;;12.67;100.00
50933;BME280;36921;49.006;9.292;2023-08-31T01:16:48;98332.03;;;12.55;100.00
50933;BME280;36921;49.006;9.292;2023-08-31T01:21:47;98342.59;;;12.45;100.00
50933;BME280;36921;49.006;9.292;2023-08-31T01:24:15;98326.69;;;12.30;100.00
50933;BME280;36921;49.006;9.292;2023-08-31T01:26:41;98327.59;;;12.24;100.00
50933;BME280;36921;49.006;9.292;2023-08-31T01:29:07;98341.31;;;12.29;100.00
50933;BME280;36921;49.006;9.292;2023-08-31T01:31:41;98339.50;;;12.23;100.00
50933;BME280;36921;49.006;9.292;2023-08-31T01:34:07;98334.22;;;12.10;100.00
50933;BME280;36921;49.006;9.292;2023-08-31T01:36:36;98341.06;;;12.12;100.00
50933;BME280;36921;49.006;9.292;2023-08-31T01:41:34;98347.56;;;12.11;100.00
50933;BME280;36921;49.006;9.292;2023-08-31T01:44:01;98353.03;;;12.04;100.00
50933;BME280;36921;49.006;9.292;2023-08-31T01:46:27;98353.78;;;11.93;100.00
50933;BME280;36921;49.006;9.292;2023-08-31T01:48:53;98356.31;;;11.88;100.00
50933;BME280;36921;49.006;9.292;2023-08-31T01:51:18;98357.38;;;11.87;100.00
50933;BME280;36921;49.006;9.292;2023-08-31T01:53:43;98368.81;;;11.89;100.00
50933;BME280;36921;49.006;9.292;2023-08-31T01:56:09;98379.16;;;11.99;100.00
50933;BME280;36921;49.006;9.292;2023-08-31T01:58:35;98370.72;;;12.07;100.00
50933;BME280;36921;49.006;9.292;2023-08-31T02:01:00;98368.78;;;12.14;100.00
50933;BME280;36921;49.006;9.292;2023-08-31T02:03:25;98371.22;;;12.22;100.00
50933;BME280;36921;49.006;9.292;2023-08-31T02:05:51;98383.59;;;12.37;100.00
50933;BME280;36921;49.006;9.292;2023-08-31T02:08:16;98375.97;;;12.45;100.00
50933;BME280;36921;49.006;9.292;2023-08-31T02:10:43;98384.88;;;12.53;100.00
50933;BME280;36921;49.006;9.292;2023-08-31T02:13:08;98372.97;;;12.54;100.00
50933;BME280;36921;49.006;9.292;2023-08-31T02:15:37;98383.66;;;12.67;100.00
50933;BME280;36921;49.006;9.292;2023-08-31T02:18:03;98376.94;;;12.69;100.00
50933;BME280;36921;49.006;9.292;2023-08-31T02:20:28;98376.28;;;12.74;100.00
50933;BME280;36921;49.006;9.292;2023-08-31T02:22:54;98365.88;;;12.71;100.00
50933;BME280;36921;49.006;9.292;2023-08-31T02:25:20;98374.16;;;12.76;100.00
50933;BME280;36921;49.006;9.292;2023-08-31T02:27:46;98363.53;;;12.75;100.00
50933;BME280;36921;49.006;9.292;2023-08-31T02:30:11;98374.38;;;12.75;100.00
50933;BME280;36921;49.006;9.292;2023-08-31T02:32:37;98370.59;;;12.76;100.00
50933;BME280;36921;49.006;9.292;2023-08-31T02:35:02;98382.88;;;12.78;100.00
50933;BME280;36921;49.006;9.292;2023-08-31T02:37:27;98379.34;;;12.78;100.00
50933;BME280;36921;49.006;9.292;2023-08-31T02:39:53;98372.28;;;12.77;100.00
50933;BME280;36921;49.006;9.292;2023-08-31T02:42:18;98372.13;;;12.71;100.00
50933;BME280;36921;49.006;9.292;2023-08-31T02:44:43;98377.91;;;12.75;100.00
50933;BME280;36921;49.006;9.292;2023-08-31T02:47:09;98376.13;;;12.69;100.00
50933;BME280;36921;49.006;9.292;2023-08-31T02:49:34;98374.44;;;12.68;100.00
50933;BME280;36921;49.006;9.292;2023-08-31T02:51:59;98367.38;;;12.67;100.00
50933;BME280;36921;49.006;9.292;2023-08-31T02:54:25;98372.94;;;12.72;100.00
50933;BME280;36921;49.006;9.292;2023-08-31T02:56:51;98369.25;;;12.66;100.00
50933;BME280;36921;49.006;9.292;2023-08-31T02:59:16;98372.78;;;12.67;100.00
50933;BME280;36921;49.006;9.292;2023-08-31T03:01:42;98372.78;;;12.67;100.00
50933;BME280;36921;49.006;9.292;2023-08-31T03:04:11;98378.84;;;12.69;100.00
50933;BME280;36921;49.006;9.292;2023-08-31T03:06:36;98383.44;;;12.68;100.00
50933;BME280;36921;49.006;9.292;2023-08-31T03:09:02;98382.72;;;12.73;100.00
50933;BME280;36921;49.006;9.292;2023-08-31T03:11:27;98384.41;;;12.74;100.00
50933;BME280;36921;49.006;9.292;2023-08-31T03:13:52;98378.97;;;12.74;100.00
50933;BME280;36921;49.006;9.292;2023-08-31T03:16:18;98371.72;;;12.68;100.00
50933;BME280;36921;49.006;9.292;2023-08-31T03:18:43;98368.13;;;12.74;100.00
50933;BME280;36921;49.006;9.292;2023-08-31T03:21:08;98382.66;;;12.80;100.00
50933;BME280;36921;49.006;9.292;2023-08-31T03:23:34;98368.59;;;12.71;100.00
50933;BME280;36921;49.006;9.292;2023-08-31T03:25:59;98379.66;;;12.69;100.00
50933;BME280;36921;49.006;9.292;2023-08-31T03:28:25;98370.84;;;12.56;100.00
50933;BME280;36921;49.006;9.292;2023-08-31T03:30:54;98360.31;;;12.47;100.00
50933;BME280;36921;49.006;9.292;2023-08-31T03:33:20;98372.66;;;12.43;100.00
50933;BME280;36921;49.006;9.292;2023-08-31T03:35:45;98389.22;;;12.35;100.00
50933;BME280;36921;49.006;9.292;2023-08-31T03:38:11;98399.94;;;12.30;100.00
50933;BME280;36921;49.006;9.292;2023-08-31T03:40:36;98409.63;;;12.19;100.00
50933;BME280;36921;49.006;9.292;2023-08-31T03:43:01;98398.41;;;12.16;100.00
50933;BME280;36921;49.006;9.292;2023-08-31T03:45:27;98394.03;;;12.15;100.00
50933;BME280;36921;49.006;9.292;2023-08-31T03:47:52;98384.13;;;12.02;100.00
50933;BME280;36921;49.006;9.292;2023-08-31T03:50:18;98392.34;;;11.95;100.00
50933;BME280;36921;49.006;9.292;2023-08-31T03:52:43;98395.13;;;11.82;100.00
50933;BME280;36921;49.006;9.292;2023-08-31T03:55:09;98404.13;;;11.76;100.00
50933;BME280;36921;49.006;9.292;2023-08-31T03:57:35;98408.72;;;11.75;100.00
50933;BME280;36921;49.006;9.292;2023-08-31T04:00:00;98403.31;;;11.75;100.00
50933;BME280;36921;49.006;9.292;2023-08-31T04:02:28;98409.19;;;11.72;100.00
50933;BME280;36921;49.006;9.292;2023-08-31T04:04:54;98407.34;;;11.66;100.00
50933;BME280;36921;49.006;9.292;2023-08-31T04:07:19;98416.31;;;11.67;100.00
50933;BME280;36921;49.006;9.292;2023-08-31T04:09:44;98418.75;;;11.75;100.00
50933;BME280;36921;49.006;9.292;2023-08-31T04:12:09;98430.81;;;11.79;100.00
50933;BME280;36921;49.006;9.292;2023-08-31T04:14:35;98421.91;;;11.72;100.00
50933;BME280;36921;49.006;9.292;2023-08-31T04:17:00;98408.38;;;11.65;100.00
50933;BME280;36921;49.006;9.292;2023-08-31T04:19:25;98425.81;;;11.76;100.00
50933;BME280;36921;49.006;9.292;2023-08-31T04:21:51;98420.56;;;11.81;100.00
50933;BME280;36921;49.006;9.292;2023-08-31T04:24:16;98428.03;;;11.92;100.00
50933;BME280;36921;49.006;9.292;2023-08-31T04:26:42;98442.16;;;11.94;100.00
50933;BME280;36921;49.006;9.292;2023-08-31T04:29:08;98431.13;;;11.96;100.00
50933;BME280;36921;49.006;9.292;2023-08-31T04:31:33;98438.63;;;11.94;100.00
50933;BME280;36921;49.006;9.292;2023-08-31T04:33:58;98437.81;;;11.93;100.00
50933;BME280;36921;49.006;9.292;2023-08-31T04:36:24;98427.41;;;11.90;100.00
50933;BME280;36921;49.006;9.292;2023-08-31T04:38:51;98450.47;;;11.99;100.00
50933;BME280;36921;49.006;9.292;2023-08-31T04:41:16;98446.13;;;11.98;100.00
50933;BME280;36921;49.006;9.292;2023-08-31T04:43:41;98443.44;;;11.92;100.00
50933;BME280;36921;49.006;9.292;2023-08-31T04:46:07;98457.44;;;11.89;100.00
50933;BME280;36921;49.006;9.292;2023-08-31T04:48:32;98450.63;;;11.79;100.00
50933;BME280;36921;49.006;9.292;2023-08-31T04:50:58;98448.72;;;11.80;100.00
50933;BME280;36921;49.006;9.292;2023-08-31T04:53:24;98450.38;;;11.81;100.00
50933;BME280;36921;49.006;9.292;2023-08-31T04:55:49;98465.16;;;11.85;100.00
50933;BME280;36921;49.006;9.292;2023-08-31T04:58:14;98464.53;;;11.90;100.00
50933;BME280;36921;49.006;9.292;2023-08-31T05:00:39;98452.44;;;11.85;100.00
50933;BME280;36921;49.006;9.292;2023-08-31T05:03:14;98465.97;;;11.92;100.00
50933;BME280;36921;49.006;9.292;2023-08-31T05:05:40;98451.38;;;11.93;100.00
50933;BME280;36921;49.006;9.292;2023-08-31T05:08:07;98454.25;;;11.98;100.00
50933;BME280;36921;49.006;9.292;2023-08-31T05:10:33;98466.75;;;11.99;100.00
50933;BME280;36921;49.006;9.292;2023-08-31T05:12:59;98467.81;;;11.98;100.00
50933;BME280;36921;49.006;9.292;2023-08-31T05:15:24;98469.63;;;12.04;100.00
50933;BME280;36921;49.006;9.292;2023-08-31T05:17:53;98465.88;;;12.05;100.00
50933;BME280;36921;49.006;9.292;2023-08-31T05:20:18;98455.84;;;12.06;100.00
50933;BME280;36921;49.006;9.292;2023-08-31T05:22:43;98464.94;;;12.18;100.00
50933;BME280;36921;49.006;9.292;2023-08-31T05:25:09;98465.84;;;12.31;100.00
50933;BME280;36921;49.006;9.292;2023-08-31T05:27:34;98456.47;;;12.52;100.00
50933;BME280;36921;49.006;9.292;2023-08-31T05:29:59;98452.56;;;12.66;100.00
50933;BME280;36921;49.006;9.292;2023-08-31T05:32:28;98449.25;;;12.82;100.00
50933;BME280;36921;49.006;9.292;2023-08-31T05:34:54;98445.91;;;12.99;100.00
50933;BME280;36921;49.006;9.292;2023-08-31T05:37:19;98453.44;;;13.15;100.00
50933;BME280;36921;49.006;9.292;2023-08-31T05:39:48;98447.28;;;13.26;100.00
50933;BME280;36921;49.006;9.292;2023-08-31T05:42:14;98454.59;;;13.98;100.00
50933;BME280;36921;49.006;9.292;2023-08-31T05:44:39;98432.25;;;14.78;100.00
50933;BME280;36921;49.006;9.292;2023-08-31T05:47:05;98433.94;;;15.20;100.00
50933;BME280;36921;49.006;9.292;2023-08-31T05:49:30;98421.84;;;15.16;100.00
50933;BME280;36921;49.006;9.292;2023-08-31T05:51:55;98431.66;;;14.76;100.00
50933;BME280;36921;49.006;9.292;2023-08-31T05:54:21;98440.53;;;14.13;100.00
50933;BME280;36921;49.006;9.292;2023-08-31T05:56:46;98453.94;;;13.72;100.00
50933;BME280;36921;49.006;9.292;2023-08-31T05:59:13;98460.38;;;13.59;100.00
50933;BME280;36921;49.006;9.292;2023-08-31T06:01:39;98468.00;;;13.69;100.00
50933;BME280;36921;49.006;9.292;2023-08-31T06:04:04;98471.31;;;13.71;100.00
50933;BME280;36921;49.006;9.292;2023-08-31T06:06:31;98464.03;;;13.53;100.00
50933;BME280;36921;49.006;9.292;2023-08-31T06:08:57;98466.13;;;13.21;100.00
50933;BME280;36921;49.006;9.292;2023-08-31T06:11:23;98473.06;;;13.35;100.00
50933;BME280;36921;49.006;9.292;2023-08-31T06:13:48;98470.28;;;13.42;100.00
50933;BME280;36921;49.006;9.292;2023-08-31T06:16:14;98481.44;;;13.64;100.00
50933;BME280;36921;49.006;9.292;2023-08-31T06:18:39;98478.38;;;14.02;100.00
50933;BME280;36921;49.006;9.292;2023-08-31T06:21:05;98469.13;;;14.03;100.00
50933;BME280;36921;49.006;9.292;2023-08-31T06:23:30;98476.63;;;13.78;100.00
50933;BME280;36921;49.006;9.292;2023-08-31T06:25:56;98486.88;;;13.64;100.00
50933;BME280;36921;49.006;9.292;2023-08-31T06:28:22;98496.13;;;13.63;100.00
50933;BME280;36921;49.006;9.292;2023-08-31T06:30:48;98503.28;;;14.53;100.00
50933;BME280;36921;49.006;9.292;2023-08-31T06:33:14;98452.38;;;18.98;100.00
50933;BME280;36921;49.006;9.292;2023-08-31T06:35:40;98438.13;;;23.75;100.00
50933;BME280;36921;49.006;9.292;2023-08-31T06:38:05;98440.56;;;24.94;91.73
50933;BME280;36921;49.006;9.292;2023-08-31T06:40:31;98454.13;;;25.23;92.73
50933;BME280;36921;49.006;9.292;2023-08-31T06:42:56;98449.88;;;26.04;83.21
50933;BME280;36921;49.006;9.292;2023-08-31T06:45:22;98459.00;;;25.12;89.83
50933;BME280;36921;49.006;9.292;2023-08-31T06:47:47;98469.84;;;21.84;100.00
50933;BME280;36921;49.006;9.292;2023-08-31T06:50:13;98475.22;;;20.44;100.00
50933;BME280;36921;49.006;9.292;2023-08-31T06:52:39;98480.38;;;19.74;100.00
50933;BME280;36921;49.006;9.292;2023-08-31T06:55:06;98480.06;;;18.97;100.00
50933;BME280;36921;49.006;9.292;2023-08-31T06:57:32;98487.72;;;17.44;100.00
50933;BME280;36921;49.006;9.292;2023-08-31T06:59:57;98493.28;;;16.71;100.00
50933;BME280;36921;49.006;9.292;2023-08-31T07:02:26;98492.31;;;16.60;100.00
50933;BME280;36921;49.006;9.292;2023-08-31T07:04:51;98494.31;;;16.31;100.00
50933;BME280;36921;49.006;9.292;2023-08-31T07:07:17;98492.59;;;16.25;100.00
50933;BME280;36921;49.006;9.292;2023-08-31T07:09:44;98483.72;;;16.52;100.00
50933;BME280;36921;49.006;9.292;2023-08-31T07:12:10;98488.72;;;16.94;100.00
50933;BME280;36921;49.006;9.292;2023-08-31T07:14:35;98487.56;;;16.90;100.00
50933;BME280;36921;49.006;9.292;2023-08-31T07:17:01;98491.13;;;16.73;100.00
50933;BME280;36921;49.006;9.292;2023-08-31T07:19:26;98497.09;;;16.70;100.00
50933;BME280;36921;49.006;9.292;2023-08-31T07:21:52;98500.25;;;16.79;100.00
50933;BME280;36921;49.006;9.292;2023-08-31T07:24:20;98493.38;;;17.15;100.00
50933;BME280;36921;49.006;9.292;2023-08-31T07:26:46;98488.72;;;17.82;100.00
50933;BME280;36921;49.006;9.292;2023-08-31T07:29:11;98494.66;;;17.79;100.00
50933;BME280;36921;49.006;9.292;2023-08-31T07:31:37;98504.16;;;17.93;100.00
50933;BME280;36921;49.006;9.292;2023-08-31T07:34:02;98495.53;;;18.06;100.00
50933;BME280;36921;49.006;9.292;2023-08-31T07:36:29;98513.44;;;18.51;100.00
50933;BME280;36921;49.006;9.292;2023-08-31T07:38:55;98511.59;;;19.52;100.00
50933;BME280;36921;49.006;9.292;2023-08-31T07:41:20;98517.34;;;21.55;100.00
50933;BME280;36921;49.006;9.292;2023-08-31T07:43:45;98518.88;;;21.77;100.00
50933;BME280;36921;49.006;9.292;2023-08-31T07:46:11;98533.47;;;20.92;100.00
50933;BME280;36921;49.006;9.292;2023-08-31T07:48:36;98525.75;;;20.12;100.00
50933;BME280;36921;49.006;9.292;2023-08-31T07:51:02;98518.63;;;20.42;100.00
50933;BME280;36921;49.006;9.292;2023-08-31T07:53:28;98523.03;;;20.48;100.00
50933;BME280;36921;49.006;9.292;2023-08-31T07:55:55;98522.22;;;20.93;100.00
50933;BME280;36921;49.006;9.292;2023-08-31T07:58:22;98526.19;;;21.37;100.00
50933;BME280;36921;49.006;9.292;2023-08-31T08:00:48;98522.19;;;21.79;100.00
50933;BME280;36921;49.006;9.292;2023-08-31T08:03:13;98515.22;;;22.36;100.00
50933;BME280;36921;49.006;9.292;2023-08-31T08:05:39;98524.28;;;25.19;100.00
50933;BME280;36921;49.006;9.292;2023-08-31T08:08:05;98517.03;;;26.00;90.53
50933;BME280;36921;49.006;9.292;2023-08-31T08:10:31;98510.44;;;26.69;86.39
50933;BME280;36921;49.006;9.292;2023-08-31T08:12:56;98513.41;;;28.88;74.47
50933;BME280;36921;49.006;9.292;2023-08-31T08:15:22;98524.69;;;27.07;71.81
50933;BME280;36921;49.006;9.292;2023-08-31T08:17:47;98527.00;;;26.01;75.74
50933;BME280;36921;49.006;9.292;2023-08-31T08:20:13;98526.78;;;23.98;83.67
50933;BME280;36921;49.006;9.292;2023-08-31T08:22:40;98523.84;;;22.93;88.71
50933;BME280;36921;49.006;9.292;2023-08-31T08:25:05;98521.75;;;23.57;86.20
50933;BME280;36921;49.006;9.292;2023-08-31T08:27:31;98523.31;;;23.20;83.54
50933;BME280;36921;49.006;9.292;2023-08-31T08:30:01;98532.75;;;22.06;93.94
50933;BME280;36921;49.006;9.292;2023-08-31T08:32:26;98527.19;;;22.16;100.00
50933;BME280;36921;49.006;9.292;2023-08-31T08:34:52;98530.31;;;22.04;100.00
50933;BME280;36921;49.006;9.292;2023-08-31T08:37:17;98534.41;;;22.51;100.00
50933;BME280;36921;49.006;9.292;2023-08-31T08:39:43;98537.63;;;20.64;100.00
50933;BME280;36921;49.006;9.292;2023-08-31T08:42:10;98530.66;;;21.22;100.00
50933;BME280;36921;49.006;9.292;2023-08-31T08:44:36;98541.28;;;22.15;100.00
50933;BME280;36921;49.006;9.292;2023-08-31T08:47:01;98550.38;;;21.60;100.00
50933;BME280;36921;49.006;9.292;2023-08-31T08:49:28;98537.88;;;22.33;96.10
50933;BME280;36921;49.006;9.292;2023-08-31T08:51:55;98537.53;;;24.56;82.51
50933;BME280;36921;49.006;9.292;2023-08-31T08:54:24;98527.25;;;26.50;74.99
50933;BME280;36921;49.006;9.292;2023-08-31T08:56:50;98535.69;;;25.86;71.72
50933;BME280;36921;49.006;9.292;2023-08-31T08:59:16;98545.91;;;24.51;72.21
50933;BME280;36921;49.006;9.292;2023-08-31T09:01:41;98547.69;;;24.23;72.86
50933;BME280;36921;49.006;9.292;2023-08-31T09:04:09;98542.56;;;25.01;76.47
50933;BME280;36921;49.006;9.292;2023-08-31T09:06:35;98547.41;;;22.80;81.99
50933;BME280;36921;49.006;9.292;2023-08-31T09:09:00;98544.09;;;23.36;85.75
50933;BME280;36921;49.006;9.292;2023-08-31T09:11:26;98559.97;;;22.23;91.27
50933;BME280;36921;49.006;9.292;2023-08-31T09:13:52;98561.31;;;21.76;91.24
50933;BME280;36921;49.006;9.292;2023-08-31T09:16:25;98553.78;;;21.11;100.00
50933;BME280;36921;49.006;9.292;2023-08-31T09:18:54;98548.94;;;22.28;91.59
50933;BME280;36921;49.006;9.292;2023-08-31T09:21:20;98559.41;;;21.71;84.35
50933;BME280;36921;49.006;9.292;2023-08-31T09:23:56;98564.41;;;23.94;75.63
50933;BME280;36921;49.006;9.292;2023-08-31T09:26:25;98560.25;;;26.01;68.99
50933;BME280;36921;49.006;9.292;2023-08-31T09:28:50;98555.00;;;23.95;70.22
50933;BME280;36921;49.006;9.292;2023-08-31T09:31:17;98569.81;;;24.42;69.10
50933;BME280;36921;49.006;9.292;2023-08-31T09:33:52;98572.38;;;22.99;74.51
50933;BME280;36921;49.006;9.292;2023-08-31T09:36:18;98572.19;;;22.06;80.64
50933;BME280;36921;49.006;9.292;2023-08-31T09:38:45;98566.97;;;22.49;74.44
50933;BME280;36921;49.006;9.292;2023-08-31T09:41:11;98565.91;;;24.43;69.09
50933;BME280;36921;49.006;9.292;2023-08-31T09:43:36;98552.94;;;23.57;70.75
50933;BME280;36921;49.006;9.292;2023-08-31T09:46:03;98570.56;;;21.95;74.32
50933;BME280;36921;49.006;9.292;2023-08-31T09:48:29;98556.03;;;23.99;71.30
50933;BME280;36921;49.006;9.292;2023-08-31T09:50:56;98558.91;;;26.49;64.90
50933;BME280;36921;49.006;9.292;2023-08-31T09:53:23;98555.78;;;29.67;57.11
50933;BME280;36921;49.006;9.292;2023-08-31T09:55:51;98565.88;;;31.52;50.44
50933;BME280;36921;49.006;9.292;2023-08-31T09:58:19;98556.38;;;33.11;47.16
50933;BME280;36921;49.006;9.292;2023-08-31T10:00:46;98565.13;;;31.30;45.43
50933;BME280;36921;49.006;9.292;2023-08-31T10:03:11;98560.19;;;31.48;47.31
50933;BME280;36921;49.006;9.292;2023-08-31T10:05:39;98569.81;;;30.09;46.28
50933;BME280;36921;49.006;9.292;2023-08-31T10:08:05;98560.72;;;32.40;45.19
50933;BME280;36921;49.006;9.292;2023-08-31T10:10:33;98555.53;;;33.70;45.09
50933;BME280;36921;49.006;9.292;2023-08-31T10:12:59;98560.56;;;34.32;41.36
50933;BME280;36921;49.006;9.292;2023-08-31T10:15:26;98555.19;;;36.46;40.09
50933;BME280;36921;49.006;9.292;2023-08-31T10:17:55;98551.69;;;38.13;37.67
50933;BME280;36921;49.006;9.292;2023-08-31T10:20:21;98553.09;;;36.09;36.72
50933;BME280;36921;49.006;9.292;2023-08-31T10:22:46;98549.63;;;36.19;38.62
50933;BME280;36921;49.006;9.292;2023-08-31T10:25:12;98559.69;;;31.34;39.92
50933;BME280;36921;49.006;9.292;2023-08-31T10:27:47;98564.31;;;29.91;42.54
50933;BME280;36921;49.006;9.292;2023-08-31T10:35:48;98567.91;;;23.32;52.47
50933;BME280;36921;49.006;9.292;2023-08-31T10:38:15;98552.19;;;27.97;46.52
50933;BME280;36921;49.006;9.292;2023-08-31T10:40:41;98558.53;;;27.09;47.57
50933;BME280;36921;49.006;9.292;2023-08-31T10:43:16;98551.41;;;22.64;52.74
50933;BME280;36921;49.006;9.292;2023-08-31T10:45:45;98549.56;;;23.41;53.75
50933;BME280;36921;49.006;9.292;2023-08-31T10:48:11;98549.88;;;27.11;49.11
50933;BME280;36921;49.006;9.292;2023-08-31T10:50:45;98557.81;;;28.76;45.38
50933;BME280;36921;49.006;9.292;2023-08-31T10:53:12;98550.31;;;33.09;42.68
50933;BME280;36921;49.006;9.292;2023-08-31T10:55:51;98552.88;;;31.10;40.61
50933;BME280;36921;49.006;9.292;2023-08-31T10:58:17;98549.94;;;31.77;40.10
50933;BME280;36921;49.006;9.292;2023-08-31T11:00:47;98555.63;;;35.03;37.03
50933;BME280;36921;49.006;9.292;2023-08-31T11:03:15;98537.13;;;33.09;37.74
50933;BME280;36921;49.006;9.292;2023-08-31T11:05:51;98549.00;;;29.77;39.64
50933;BME280;36921;49.006;9.292;2023-08-31T11:08:22;98558.56;;;25.92;44.63
50933;BME280;36921;49.006;9.292;2023-08-31T11:10:48;98559.56;;;25.82;47.15
50933;BME280;36921;49.006;9.292;2023-08-31T11:13:19;98549.91;;;26.30;46.20
50933;BME280;36921;49.006;9.292;2023-08-31T11:15:48;98549.16;;;26.74;45.59
50933;BME280;36921;49.006;9.292;2023-08-31T11:18:14;98551.81;;;30.27;41.72
50933;BME280;36921;49.006;9.292;2023-08-31T11:20:42;98540.22;;;33.20;39.05
50933;BME280;36921;49.006;9.292;2023-08-31T11:23:08;98538.47;;;31.33;38.82
50933;BME280;36921;49.006;9.292;2023-08-31T11:25:33;98547.00;;;26.12;44.19
50933;BME280;36921;49.006;9.292;2023-08-31T11:28:00;98555.69;;;27.01;45.32
50933;BME280;36921;49.006;9.292;2023-08-31T11:30:28;98534.06;;;30.65;42.86
50933;BME280;36921;49.006;9.292;2023-08-31T11:32:57;98532.69;;;29.87;41.11
50933;BME280;36921;49.006;9.292;2023-08-31T11:35:37;98544.66;;;27.09;43.73
50933;BME280;36921;49.006;9.292;2023-08-31T11:38:03;98551.06;;;25.37;47.22
50933;BME280;36921;49.006;9.292;2023-08-31T11:40:29;98544.44;;;22.71;51.35
50933;BME280;36921;49.006;9.292;2023-08-31T11:42:56;98549.84;;;22.82;53.94
50933;BME280;36921;49.006;9.292;2023-08-31T11:45:22;98548.69;;;22.59;55.39
50933;BME280;36921;49.006;9.292;2023-08-31T11:47:49;98552.97;;;22.41;56.65
50933;BME280;36921;49.006;9.292;2023-08-31T11:50:15;98558.00;;;21.74;59.22
50933;BME280;36921;49.006;9.292;2023-08-31T11:52:42;98555.72;;;21.11;62.70
50933;BME280;36921;49.006;9.292;2023-08-31T11:55:12;98560.28;;;21.61;63.47
50933;BME280;36921;49.006;9.292;2023-08-31T11:57:37;98549.78;;;21.63;64.28
50933;BME280;36921;49.006;9.292;2023-08-31T12:00:04;98539.25;;;22.65;63.18
50933;BME280;36921;49.006;9.292;2023-08-31T12:02:37;98529.31;;;23.27;60.92
50933;BME280;36921;49.006;9.292;2023-08-31T12:05:02;98542.88;;;23.72;62.26
50933;BME280;36921;49.006;9.292;2023-08-31T12:07:27;98555.75;;;24.00;59.98
50933;BME280;36921;49.006;9.292;2023-08-31T12:09:53;98538.69;;;23.26;61.47
50933;BME280;36921;49.006;9.292;2023-08-31T12:12:23;98542.38;;;23.89;62.21
50933;BME280;36921;49.006;9.292;2023-08-31T12:14:52;98547.03;;;24.50;59.07
50933;BME280;36921;49.006;9.292;2023-08-31T12:17:18;98542.09;;;24.47;58.16
50933;BME280;36921;49.006;9.292;2023-08-31T12:19:43;98551.06;;;25.37;59.78
50933;BME280;36921;49.006;9.292;2023-08-31T12:22:09;98537.59;;;25.86;55.91
50933;BME280;36921;49.006;9.292;2023-08-31T12:24:41;98537.94;;;26.57;54.78
50933;BME280;36921;49.006;9.292;2023-08-31T12:27:10;98535.41;;;26.69;54.33
50933;BME280;36921;49.006;9.292;2023-08-31T12:29:36;98535.19;;;26.43;54.50
50933;BME280;36921;49.006;9.292;2023-08-31T12:32:02;98530.41;;;27.34;54.50
50933;BME280;36921;49.006;9.292;2023-08-31T12:34:28;98530.47;;;26.88;52.03
50933;BME280;36921;49.006;9.292;2023-08-31T12:36:53;98535.22;;;25.79;53.39
50933;BME280;36921;49.006;9.292;2023-08-31T12:39:19;98531.59;;;24.44;56.69
50933;BME280;36921;49.006;9.292;2023-08-31T12:41:44;98516.47;;;23.84;59.66
50933;BME280;36921;49.006;9.292;2023-08-31T12:44:10;98536.13;;;24.21;57.81
50933;BME280;36921;49.006;9.292;2023-08-31T12:46:35;98535.69;;;25.86;56.54
50933;BME280;36921;49.006;9.292;2023-08-31T12:49:01;98530.28;;;26.85;51.46
50933;BME280;36921;49.006;9.292;2023-08-31T12:51:28;98528.59;;;27.38;52.46
50933;BME280;36921;49.006;9.292;2023-08-31T12:53:54;98514.31;;;26.45;54.01
50933;BME280;36921;49.006;9.292;2023-08-31T12:56:19;98513.59;;;25.81;55.55
50933;BME280;36921;49.006;9.292;2023-08-31T12:58:51;98514.00;;;24.73;56.51
50933;BME280;36921;49.006;9.292;2023-08-31T13:01:18;98527.84;;;24.21;58.24
50933;BME280;36921;49.006;9.292;2023-08-31T13:03:44;98536.81;;;22.92;60.35
50933;BME280;36921;49.006;9.292;2023-08-31T13:06:09;98543.72;;;21.66;64.49